sensor_id;sensor_type;location;lat;lon;timestamp;pressure;altitude;pressure_sealevel;temperature;humidity
7824;BME280;3957;48.61947800;9.05303100;2023-12-07T00:00:46;96287.03;;;-0.29;100.00
7824;BME280;3957;48.61947800;9.05303100;2023-12-07T00:01:48;96295.19;;;-0.22;100.00
7824;BME280;3957;48.61947800;9.05303100;2023-12-07T00:02:50;96301.88;;;-0.18;100.00
7824;BME280;3957;48.61947800;9.05303100;2023-12-07T00:03:51;96296.38;;;-0.15;100.00
7824;BME280;3957;48.61947800;9.05303100;2023-12-07T00:04:53;96301.31;;;-0.22;100.00
7824;BME280;3957;48.61947800;9.05303100;2023-12-07T00:05:54;96298.25;;;-0.27;100.00
7824;BME280;3957;48.61947800;9.05303100;2023-12-07T00:06:56;96296.00;;;-0.31;100.00
7824;BME280;3957;48.61947800;9.05303100;2023-12-07T00:07:58;96300.81;;;-0.37;100.00
7824;BME280;3957;48.61947800;9.05303100;2023-12-07T00:08:59;96298.72;;;-0.43;100.00
7824;BME280;3957;48.61947800;9.05303100;2023-12-07T00:10:02;96295.78;;;-0.49;100.00
7824;BME280;3957;48.61947800;9.05303100;2023-12-07T00:11:04;96298.66;;;-0.53;100.00
7824;BME280;3957;48.61947800;9.05303100;2023-12-07T00:12:06;96305.84;;;-0.55;100.00
7824;BME280;3957;48.61947800;9.05303100;2023-12-07T00:13:07;96304.16;;;-0.56;100.00
7824;BME280;3957;48.61947800;9.05303100;2023-12-07T00:14:09;96297.50;;;-0.60;100.00
7824;BME280;3957;48.61947800;9.05303100;2023-12-07T00:15:10;96298.47;;;-0.61;100.00
7824;BME280;3957;48.61947800;9.05303100;2023-12-07T00:16:12;96297.91;;;-0.64;100.00
7824;BME280;3957;48.61947800;9.05303100;2023-12-07T00:17:14;96308.28;;;-0.63;100.00
7824;BME280;3957;48.61947800;9.05303100;2023-12-07T00:18:15;96303.28;;;-0.66;100.00
7824;BME280;3957;48.61947800;9.05303100;2023-12-07T00:19:17;96307.69;;;-0.66;100.00
7824;BME280;3957;48.61947800;9.05303100;2023-12-07T00:20:19;96315.63;;;-0.57;100.00
7824;BME280;3957;48.61947800;9.05303100;2023-12-07T00:21:20;96318.53;;;-0.60;100.00
7824;BME280;3957;48.61947800;9.05303100;2023-12-07T00:22:22;96312.44;;;-0.60;100.00
7824;BME280;3957;48.61947800;9.05303100;2023-12-07T00:23:26;96310.09;;;-0.63;100.00
7824;BME280;3957;48.61947800;9.05303100;2023-12-07T00:24:28;96311.16;;;-0.66;100.00
7824;BME280;3957;48.61947800;9.05303100;2023-12-07T00:25:30;96318.94;;;-0.64;100.00
7824;BME280;3957;48.61947800;9.05303100;2023-12-07T00:26:31;96310.19;;;-0.65;100.00
7824;BME280;3957;48.61947800;9.05303100;2023-12-07T00:27:33;96303.16;;;-0.64;100.00
7824;BME280;3957;48.61947800;9.05303100;2023-12-07T00:28:34;96308.53;;;-0.66;100.00
7824;BME280;3957;48.61947800;9.05303100;2023-12-07T00:29:38;96302.44;;;-0.66;100.00
7824;BME280;3957;48.61947800;9.05303100;2023-12-07T00:30:40;96305.06;;;-0.66;100.00
7824;BME280;3957;48.61947800;9.05303100;2023-12-07T00:31:43;96305.19;;;-0.68;100.00
7824;BME280;3957;48.61947800;9.05303100;2023-12-07T00:32:45;96313.28;;;-0.60;100.00
7824;BME280;3957;48.61947800;9.05303100;2023-12-07T00:33:47;96311.97;;;-0.44;100.00
7824;BME280;3957;48.61947800;9.05303100;2023-12-07T00:34:49;96311.59;;;-0.40;100.00
7824;BME280;3957;48.61947800;9.05303100;2023-12-07T00:35:51;96310.56;;;-0.48;100.00
7824;BME280;3957;48.61947800;9.05303100;2023-12-07T00:36:52;96309.34;;;-0.44;100.00
7824;BME280;3957;48.61947800;9.05303100;2023-12-07T00:37:55;96309.75;;;-0.49;100.00
7824;BME280;3957;48.61947800;9.05303100;2023-12-07T00:38:57;96306.16;;;-0.48;100.00
7824;BME280;3957;48.61947800;9.05303100;2023-12-07T00:39:58;96316.41;;;-0.45;100.00
7824;BME280;3957;48.61947800;9.05303100;2023-12-07T00:41:00;96304.75;;;-0.52;100.00
7824;BME280;3957;48.61947800;9.05303100;2023-12-07T00:42:02;96308.47;;;-0.55;100.00
7824;BME280;3957;48.61947800;9.05303100;2023-12-07T00:43:04;96307.19;;;-0.60;100.00
7824;BME280;3957;48.61947800;9.05303100;2023-12-07T00:44:06;96311.72;;;-0.62;100.00
7824;BME280;3957;48.61947800;9.05303100;2023-12-07T00:45:07;96314.06;;;-0.69;100.00
7824;BME280;3957;48.61947800;9.05303100;2023-12-07T00:46:10;96311.53;;;-0.71;100.00
7824;BME280;3957;48.61947800;9.05303100;2023-12-07T00:47:12;96308.81;;;-0.69;100.00
7824;BME280;3957;48.61947800;9.05303100;2023-12-07T00:48:13;96315.38;;;-0.75;100.00
7824;BME280;3957;48.61947800;9.05303100;2023-12-07T00:49:15;96314.56;;;-0.75;100.00
7824;BME280;3957;48.61947800;9.05303100;2023-12-07T00:50:17;96307.56;;;-0.65;100.00
7824;BME280;3957;48.61947800;9.05303100;2023-12-07T00:51:18;96308.41;;;-0.64;100.00
7824;BME280;3957;48.61947800;9.05303100;2023-12-07T00:52:20;96306.88;;;-0.67;100.00
7824;BME280;3957;48.61947800;9.05303100;2023-12-07T00:53:22;96303.56;;;-0.69;100.00
7824;BME280;3957;48.61947800;9.05303100;2023-12-07T00:54:23;96305.31;;;-0.70;100.00
7824;BME280;3957;48.61947800;9.05303100;2023-12-07T00:55:25;96300.22;;;-0.71;100.00
7824;BME280;3957;48.61947800;9.05303100;2023-12-07T00:56:26;96314.16;;;-0.71;100.00
7824;BME280;3957;48.61947800;9.05303100;2023-12-07T00:57:28;96302.69;;;-0.70;100.00
7824;BME280;3957;48.61947800;9.05303100;2023-12-07T00:58:30;96306.88;;;-0.67;100.00
7824;BME280;3957;48.61947800;9.05303100;2023-12-07T00:59:32;96306.28;;;-0.71;100.00
7824;BME280;3957;48.61947800;9.05303100;2023-12-07T01:00:35;96308.34;;;-0.74;100.00
7824;BME280;3957;48.61947800;9.05303100;2023-12-07T01:01:38;96308.63;;;-0.77;100.00
7824;BME280;3957;48.61947800;9.05303100;2023-12-07T01:02:40;96312.06;;;-0.77;100.00
7824;BME280;3957;48.61947800;9.05303100;2023-12-07T01:03:42;96311.34;;;-0.79;100.00
7824;BME280;3957;48.61947800;9.05303100;2023-12-07T01:04:43;96312.31;;;-0.80;100.00
7824;BME280;3957;48.61947800;9.05303100;2023-12-07T01:05:45;96312.47;;;-0.81;100.00
7824;BME280;3957;48.61947800;9.05303100;2023-12-07T01:06:47;96315.31;;;-0.84;100.00
7824;BME280;3957;48.61947800;9.05303100;2023-12-07T01:07:49;96321.56;;;-0.86;100.00
7824;BME280;3957;48.61947800;9.05303100;2023-12-07T01:08:51;96313.69;;;-0.86;100.00
7824;BME280;3957;48.61947800;9.05303100;2023-12-07T01:09:52;96320.34;;;-0.81;100.00
7824;BME280;3957;48.61947800;9.05303100;2023-12-07T01:10:54;96326.28;;;-0.79;100.00
7824;BME280;3957;48.61947800;9.05303100;2023-12-07T01:11:55;96321.16;;;-0.81;100.00
7824;BME280;3957;48.61947800;9.05303100;2023-12-07T01:12:59;96319.50;;;-0.82;100.00
7824;BME280;3957;48.61947800;9.05303100;2023-12-07T01:14:00;96326.81;;;-0.86;100.00
7824;BME280;3957;48.61947800;9.05303100;2023-12-07T01:15:02;96319.41;;;-0.92;100.00
7824;BME280;3957;48.61947800;9.05303100;2023-12-07T01:16:04;96324.19;;;-0.86;100.00
7824;BME280;3957;48.61947800;9.05303100;2023-12-07T01:17:06;96327.63;;;-0.85;100.00
7824;BME280;3957;48.61947800;9.05303100;2023-12-07T01:18:07;96333.00;;;-0.87;100.00
7824;BME280;3957;48.61947800;9.05303100;2023-12-07T01:19:09;96332.41;;;-0.90;100.00
7824;BME280;3957;48.61947800;9.05303100;2023-12-07T01:20:11;96335.31;;;-0.93;100.00
7824;BME280;3957;48.61947800;9.05303100;2023-12-07T01:21:14;96334.72;;;-0.97;100.00
7824;BME280;3957;48.61947800;9.05303100;2023-12-07T01:22:16;96340.09;;;-0.98;100.00
7824;BME280;3957;48.61947800;9.05303100;2023-12-07T01:23:17;96332.34;;;-1.00;100.00
7824;BME280;3957;48.61947800;9.05303100;2023-12-07T01:24:19;96332.59;;;-1.03;100.00
7824;BME280;3957;48.61947800;9.05303100;2023-12-07T01:25:20;96330.47;;;-1.09;100.00
7824;BME280;3957;48.61947800;9.05303100;2023-12-07T01:26:24;96332.41;;;-1.11;100.00
7824;BME280;3957;48.61947800;9.05303100;2023-12-07T01:27:25;96323.94;;;-1.15;100.00
7824;BME280;3957;48.61947800;9.05303100;2023-12-07T01:28:27;96324.19;;;-1.18;100.00
7824;BME280;3957;48.61947800;9.05303100;2023-12-07T01:29:29;96327.88;;;-1.21;100.00
7824;BME280;3957;48.61947800;9.05303100;2023-12-07T01:30:30;96321.94;;;-1.23;100.00
7824;BME280;3957;48.61947800;9.05303100;2023-12-07T01:31:32;96327.19;;;-1.23;100.00
7824;BME280;3957;48.61947800;9.05303100;2023-12-07T01:32:34;96335.06;;;-1.23;100.00
7824;BME280;3957;48.61947800;9.05303100;2023-12-07T01:33:35;96336.84;;;-1.23;100.00
7824;BME280;3957;48.61947800;9.05303100;2023-12-07T01:34:37;96340.44;;;-1.24;100.00
7824;BME280;3957;48.61947800;9.05303100;2023-12-07T01:35:39;96337.91;;;-1.26;100.00
7824;BME280;3957;48.61947800;9.05303100;2023-12-07T01:36:40;96338.91;;;-1.27;100.00
7824;BME280;3957;48.61947800;9.05303100;2023-12-07T01:37:42;96342.47;;;-1.28;100.00
7824;BME280;3957;48.61947800;9.05303100;2023-12-07T01:38:43;96338.19;;;-1.29;100.00
7824;BME280;3957;48.61947800;9.05303100;2023-12-07T01:39:45;96343.31;;;-1.27;100.00
7824;BME280;3957;48.61947800;9.05303100;2023-12-07T01:40:47;96345.69;;;-1.24;100.00
7824;BME280;3957;48.61947800;9.05303100;2023-12-07T01:41:50;96350.22;;;-1.26;100.00
7824;BME280;3957;48.61947800;9.05303100;2023-12-07T01:42:53;96347.72;;;-1.28;100.00
7824;BME280;3957;48.61947800;9.05303100;2023-12-07T01:43:55;96350.34;;;-1.28;100.00
7824;BME280;3957;48.61947800;9.05303100;2023-12-07T01:44:56;96349.53;;;-1.28;100.00
7824;BME280;3957;48.61947800;9.05303100;2023-12-07T01:45:58;96339.97;;;-1.29;100.00
7824;BME280;3957;48.61947800;9.05303100;2023-12-07T01:47:01;96348.69;;;-1.29;100.00
7824;BME280;3957;48.61947800;9.05303100;2023-12-07T01:48:03;96344.97;;;-1.26;100.00
7824;BME280;3957;48.61947800;9.05303100;2023-12-07T01:49:05;96354.66;;;-1.27;100.00
7824;BME280;3957;48.61947800;9.05303100;2023-12-07T01:50:08;96358.69;;;-1.23;100.00
7824;BME280;3957;48.61947800;9.05303100;2023-12-07T01:51:11;96361.53;;;-1.14;100.00
7824;BME280;3957;48.61947800;9.05303100;2023-12-07T01:52:13;96360.81;;;-1.16;100.00
7824;BME280;3957;48.61947800;9.05303100;2023-12-07T01:53:15;96361.66;;;-1.16;100.00
7824;BME280;3957;48.61947800;9.05303100;2023-12-07T01:54:17;96364.13;;;-1.03;100.00
7824;BME280;3957;48.61947800;9.05303100;2023-12-07T01:55:20;96364.47;;;-0.96;100.00
7824;BME280;3957;48.61947800;9.05303100;2023-12-07T01:56:23;96365.63;;;-0.89;100.00
7824;BME280;3957;48.61947800;9.05303100;2023-12-07T01:57:26;96363.59;;;-0.97;100.00
7824;BME280;3957;48.61947800;9.05303100;2023-12-07T01:58:28;96365.34;;;-1.07;100.00
7824;BME280;3957;48.61947800;9.05303100;2023-12-07T01:59:30;96367.03;;;-1.17;100.00
7824;BME280;3957;48.61947800;9.05303100;2023-12-07T02:00:33;96369.34;;;-1.24;100.00
7824;BME280;3957;48.61947800;9.05303100;2023-12-07T02:01:35;96371.34;;;-1.28;100.00
7824;BME280;3957;48.61947800;9.05303100;2023-12-07T02:02:37;96368.00;;;-1.30;100.00
7824;BME280;3957;48.61947800;9.05303100;2023-12-07T02:03:39;96364.94;;;-1.35;100.00
7824;BME280;3957;48.61947800;9.05303100;2023-12-07T02:04:42;96367.22;;;-1.42;100.00
7824;BME280;3957;48.61947800;9.05303100;2023-12-07T02:05:47;96363.28;;;-1.47;100.00
7824;BME280;3957;48.61947800;9.05303100;2023-12-07T02:06:50;96366.25;;;-1.52;100.00
7824;BME280;3957;48.61947800;9.05303100;2023-12-07T02:07:51;96364.97;;;-1.58;100.00
7824;BME280;3957;48.61947800;9.05303100;2023-12-07T02:08:53;96366.28;;;-1.63;100.00
7824;BME280;3957;48.61947800;9.05303100;2023-12-07T02:09:54;96366.66;;;-1.68;100.00
7824;BME280;3957;48.61947800;9.05303100;2023-12-07T02:10:56;96363.69;;;-1.75;100.00
7824;BME280;3957;48.61947800;9.05303100;2023-12-07T02:11:58;96364.75;;;-1.77;100.00
7824;BME280;3957;48.61947800;9.05303100;2023-12-07T02:12:59;96360.44;;;-1.78;100.00
7824;BME280;3957;48.61947800;9.05303100;2023-12-07T02:14:01;96355.56;;;-1.83;100.00
7824;BME280;3957;48.61947800;9.05303100;2023-12-07T02:15:04;96357.25;;;-1.82;100.00
7824;BME280;3957;48.61947800;9.05303100;2023-12-07T02:16:18;96357.50;;;-1.85;100.00
7824;BME280;3957;48.61947800;9.05303100;2023-12-07T02:17:27;96355.94;;;-1.88;100.00
7824;BME280;3957;48.61947800;9.05303100;2023-12-07T02:19:02;96356.88;;;-1.89;100.00
7824;BME280;3957;48.61947800;9.05303100;2023-12-07T02:20:18;96351.66;;;-1.89;100.00
7824;BME280;3957;48.61947800;9.05303100;2023-12-07T02:21:30;96354.38;;;-1.90;100.00
7824;BME280;3957;48.61947800;9.05303100;2023-12-07T02:22:49;96356.88;;;-1.89;100.00
7824;BME280;3957;48.61947800;9.05303100;2023-12-07T02:23:54;96353.44;;;-1.89;100.00
7824;BME280;3957;48.61947800;9.05303100;2023-12-07T02:25:09;96355.22;;;-1.90;100.00
7824;BME280;3957;48.61947800;9.05303100;2023-12-07T02:26:13;96350.22;;;-1.93;100.00
7824;BME280;3957;48.61947800;9.05303100;2023-12-07T02:27:14;96351.28;;;-1.95;100.00
7824;BME280;3957;48.61947800;9.05303100;2023-12-07T02:28:16;96351.53;;;-1.98;100.00
7824;BME280;3957;48.61947800;9.05303100;2023-12-07T02:29:18;96352.47;;;-1.99;100.00
7824;BME280;3957;48.61947800;9.05303100;2023-12-07T02:30:20;96352.22;;;-1.96;100.00
7824;BME280;3957;48.61947800;9.05303100;2023-12-07T02:31:21;96347.97;;;-1.97;100.00
7824;BME280;3957;48.61947800;9.05303100;2023-12-07T02:32:23;96348.66;;;-1.95;100.00
7824;BME280;3957;48.61947800;9.05303100;2023-12-07T02:33:25;96342.59;;;-1.96;100.00
7824;BME280;3957;48.61947800;9.05303100;2023-12-07T02:34:26;96352.84;;;-1.93;100.00
7824;BME280;3957;48.61947800;9.05303100;2023-12-07T02:35:28;96352.97;;;-1.94;100.00
7824;BME280;3957;48.61947800;9.05303100;2023-12-07T02:36:32;96346.88;;;-1.95;100.00
7824;BME280;3957;48.61947800;9.05303100;2023-12-07T02:37:43;96345.22;;;-1.96;100.00
7824;BME280;3957;48.61947800;9.05303100;2023-12-07T02:38:46;96351.53;;;-1.98;100.00
7824;BME280;3957;48.61947800;9.05303100;2023-12-07T02:39:49;96344.59;;;-1.99;100.00
7824;BME280;3957;48.61947800;9.05303100;2023-12-07T02:40:54;96353.34;;;-1.99;100.00
7824;BME280;3957;48.61947800;9.05303100;2023-12-07T02:41:56;96355.22;;;-2.01;100.00
7824;BME280;3957;48.61947800;9.05303100;2023-12-07T02:42:59;96350.22;;;-2.04;100.00
7824;BME280;3957;48.61947800;9.05303100;2023-12-07T02:44:03;96355.47;;;-2.04;100.00
7824;BME280;3957;48.61947800;9.05303100;2023-12-07T02:45:05;96356.41;;;-2.05;100.00
7824;BME280;3957;48.61947800;9.05303100;2023-12-07T02:46:07;96351.28;;;-2.07;100.00
7824;BME280;3957;48.61947800;9.05303100;2023-12-07T02:47:08;96346.88;;;-2.06;100.00
7824;BME280;3957;48.61947800;9.05303100;2023-12-07T02:48:10;96346.75;;;-2.05;100.00
7824;BME280;3957;48.61947800;9.05303100;2023-12-07T02:49:12;96349.28;;;-2.03;100.00
7824;BME280;3957;48.61947800;9.05303100;2023-12-07T02:50:14;96349.50;;;-2.06;100.00
7824;BME280;3957;48.61947800;9.05303100;2023-12-07T02:51:15;96351.16;;;-2.05;100.00
7824;BME280;3957;48.61947800;9.05303100;2023-12-07T02:52:17;96340.94;;;-2.08;100.00
7824;BME280;3957;48.61947800;9.05303100;2023-12-07T02:53:18;96346.16;;;-2.08;100.00
7824;BME280;3957;48.61947800;9.05303100;2023-12-07T02:54:20;96348.31;;;-2.02;100.00
7824;BME280;3957;48.61947800;9.05303100;2023-12-07T02:55:22;96342.59;;;-1.96;100.00
7824;BME280;3957;48.61947800;9.05303100;2023-12-07T02:56:23;96347.97;;;-1.97;100.00
7824;BME280;3957;48.61947800;9.05303100;2023-12-07T02:57:24;96344.13;;;-2.05;100.00
7824;BME280;3957;48.61947800;9.05303100;2023-12-07T02:58:26;96347.00;;;-2.08;100.00
7824;BME280;3957;48.61947800;9.05303100;2023-12-07T02:59:28;96337.81;;;-2.13;100.00
7824;BME280;3957;48.61947800;9.05303100;2023-12-07T03:00:29;96346.88;;;-2.17;100.00
7824;BME280;3957;48.61947800;9.05303100;2023-12-07T03:01:31;96345.44;;;-2.22;100.00
7824;BME280;3957;48.61947800;9.05303100;2023-12-07T03:02:34;96344.75;;;-2.24;100.00
7824;BME280;3957;48.61947800;9.05303100;2023-12-07T03:03:36;96349.25;;;-2.26;100.00
7824;BME280;3957;48.61947800;9.05303100;2023-12-07T03:04:40;96359.63;;;-2.24;100.00
7824;BME280;3957;48.61947800;9.05303100;2023-12-07T03:05:41;96348.44;;;-2.26;100.00
7824;BME280;3957;48.61947800;9.05303100;2023-12-07T03:06:43;96354.63;;;-2.27;100.00
7824;BME280;3957;48.61947800;9.05303100;2023-12-07T03:07:44;96352.34;;;-2.32;100.00
7824;BME280;3957;48.61947800;9.05303100;2023-12-07T03:08:46;96350.19;;;-2.38;100.00
7824;BME280;3957;48.61947800;9.05303100;2023-12-07T03:09:47;96353.03;;;-2.41;100.00
7824;BME280;3957;48.61947800;9.05303100;2023-12-07T03:10:49;96351.38;;;-2.42;100.00
7824;BME280;3957;48.61947800;9.05303100;2023-12-07T03:11:51;96345.63;;;-2.47;100.00
7824;BME280;3957;48.61947800;9.05303100;2023-12-07T03:12:53;96346.72;;;-2.50;100.00
7824;BME280;3957;48.61947800;9.05303100;2023-12-07T03:13:54;96352.06;;;-2.51;100.00
7824;BME280;3957;48.61947800;9.05303100;2023-12-07T03:14:56;96350.28;;;-2.51;100.00
7824;BME280;3957;48.61947800;9.05303100;2023-12-07T03:15:57;96361.59;;;-2.50;100.00
7824;BME280;3957;48.61947800;9.05303100;2023-12-07T03:16:59;96356.84;;;-2.45;100.00
7824;BME280;3957;48.61947800;9.05303100;2023-12-07T03:18:01;96355.06;;;-2.45;100.00
7824;BME280;3957;48.61947800;9.05303100;2023-12-07T03:19:02;96358.16;;;-2.40;100.00
7824;BME280;3957;48.61947800;9.05303100;2023-12-07T03:20:05;96351.75;;;-2.35;100.00
7824;BME280;3957;48.61947800;9.05303100;2023-12-07T03:21:06;96354.13;;;-2.32;100.00
7824;BME280;3957;48.61947800;9.05303100;2023-12-07T03:22:08;96352.69;;;-2.25;100.00
7824;BME280;3957;48.61947800;9.05303100;2023-12-07T03:23:10;96349.13;;;-2.24;100.00
7824;BME280;3957;48.61947800;9.05303100;2023-12-07T03:24:12;96351.75;;;-2.24;100.00
7824;BME280;3957;48.61947800;9.05303100;2023-12-07T03:25:13;96353.44;;;-2.23;100.00
7824;BME280;3957;48.61947800;9.05303100;2023-12-07T03:26:15;96357.59;;;-2.20;100.00
7824;BME280;3957;48.61947800;9.05303100;2023-12-07T03:27:17;96351.75;;;-2.24;100.00
7824;BME280;3957;48.61947800;9.05303100;2023-12-07T03:28:18;96355.31;;;-2.25;100.00
7824;BME280;3957;48.61947800;9.05303100;2023-12-07T03:29:20;96351.75;;;-2.24;100.00
7824;BME280;3957;48.61947800;9.05303100;2023-12-07T03:30:21;96359.50;;;-2.23;100.00
7824;BME280;3957;48.61947800;9.05303100;2023-12-07T03:31:23;96356.66;;;-2.19;100.00
7824;BME280;3957;48.61947800;9.05303100;2023-12-07T03:32:24;96357.84;;;-2.12;100.00
7824;BME280;3957;48.61947800;9.05303100;2023-12-07T03:33:26;96353.91;;;-2.18;100.00
7824;BME280;3957;48.61947800;9.05303100;2023-12-07T03:34:28;96351.16;;;-2.16;100.00
7824;BME280;3957;48.61947800;9.05303100;2023-12-07T03:35:29;96361.41;;;-2.13;100.00
7824;BME280;3957;48.61947800;9.05303100;2023-12-07T03:36:31;96357.84;;;-2.12;100.00
7824;BME280;3957;48.61947800;9.05303100;2023-12-07T03:37:35;96355.34;;;-2.02;100.00
7824;BME280;3957;48.61947800;9.05303100;2023-12-07T03:38:37;96357.47;;;-2.08;100.00
7824;BME280;3957;48.61947800;9.05303100;2023-12-07T03:39:38;96358.44;;;-2.09;100.00
7824;BME280;3957;48.61947800;9.05303100;2023-12-07T03:40:40;96357.25;;;-2.05;100.00
7824;BME280;3957;48.61947800;9.05303100;2023-12-07T03:41:42;96359.84;;;-2.05;100.00
7824;BME280;3957;48.61947800;9.05303100;2023-12-07T03:42:43;96364.03;;;-2.02;100.00
7824;BME280;3957;48.61947800;9.05303100;2023-12-07T03:43:56;96362.38;;;-2.03;100.00
7824;BME280;3957;48.61947800;9.05303100;2023-12-07T03:44:58;96357.84;;;-2.01;100.00
7824;BME280;3957;48.61947800;9.05303100;2023-12-07T03:46:03;96362.16;;;-2.00;100.00
7824;BME280;3957;48.61947800;9.05303100;2023-12-07T03:47:05;96362.28;;;-2.01;100.00
7824;BME280;3957;48.61947800;9.05303100;2023-12-07T03:48:07;96361.19;;;-1.99;100.00
7824;BME280;3957;48.61947800;9.05303100;2023-12-07T03:49:08;96359.53;;;-2.00;100.00
7824;BME280;3957;48.61947800;9.05303100;2023-12-07T03:50:10;96368.09;;;-1.98;100.00
7824;BME280;3957;48.61947800;9.05303100;2023-12-07T03:51:15;96356.78;;;-1.98;100.00
7824;BME280;3957;48.61947800;9.05303100;2023-12-07T03:52:18;96361.91;;;-1.97;100.00
7824;BME280;3957;48.61947800;9.05303100;2023-12-07T03:53:19;96360.94;;;-1.96;100.00
7824;BME280;3957;48.61947800;9.05303100;2023-12-07T03:54:20;96358.44;;;-1.97;100.00
7824;BME280;3957;48.61947800;9.05303100;2023-12-07T03:55:22;96355.34;;;-1.91;100.00
7824;BME280;3957;48.61947800;9.05303100;2023-12-07T03:56:24;96353.91;;;-1.84;100.00
7824;BME280;3957;48.61947800;9.05303100;2023-12-07T03:57:25;96354.97;;;-1.86;100.00
7824;BME280;3957;48.61947800;9.05303100;2023-12-07T03:58:27;96359.50;;;-1.89;100.00
7824;BME280;3957;48.61947800;9.05303100;2023-12-07T03:59:29;96365.38;;;-1.85;100.00
7824;BME280;3957;48.61947800;9.05303100;2023-12-07T04:00:33;96361.19;;;-1.88;100.00
7824;BME280;3957;48.61947800;9.05303100;2023-12-07T04:01:35;96372.63;;;-1.89;100.00
7824;BME280;3957;48.61947800;9.05303100;2023-12-07T04:02:36;96362.25;;;-1.90;100.00
7824;BME280;3957;48.61947800;9.05303100;2023-12-07T04:03:38;96366.78;;;-1.92;100.00
7824;BME280;3957;48.61947800;9.05303100;2023-12-07T04:04:39;96362.38;;;-1.92;100.00
7824;BME280;3957;48.61947800;9.05303100;2023-12-07T04:05:41;96365.72;;;-1.90;100.00
7824;BME280;3957;48.61947800;9.05303100;2023-12-07T04:06:42;96363.44;;;-1.94;100.00
7824;BME280;3957;48.61947800;9.05303100;2023-12-07T04:07:44;96360.22;;;-1.98;100.00
7824;BME280;3957;48.61947800;9.05303100;2023-12-07T04:08:46;96366.53;;;-2.00;100.00
7824;BME280;3957;48.61947800;9.05303100;2023-12-07T04:09:47;96367.63;;;-2.03;100.00
7824;BME280;3957;48.61947800;9.05303100;2023-12-07T04:10:49;96358.56;;;-1.88;100.00
7824;BME280;3957;48.61947800;9.05303100;2023-12-07T04:11:51;96360.81;;;-1.94;100.00
7824;BME280;3957;48.61947800;9.05303100;2023-12-07T04:12:52;96374.19;;;-1.97;100.00
7824;BME280;3957;48.61947800;9.05303100;2023-12-07T04:13:54;96370.97;;;-2.01;100.00
7824;BME280;3957;48.61947800;9.05303100;2023-12-07T04:14:55;96369.41;;;-2.03;100.00
7824;BME280;3957;48.61947800;9.05303100;2023-12-07T04:15:58;96369.53;;;-2.05;100.00
7824;BME280;3957;48.61947800;9.05303100;2023-12-07T04:16:59;96373.47;;;-2.11;100.00
7824;BME280;3957;48.61947800;9.05303100;2023-12-07T04:18:01;96371.19;;;-2.15;100.00
7824;BME280;3957;48.61947800;9.05303100;2023-12-07T04:19:03;96377.50;;;-2.18;100.00
7824;BME280;3957;48.61947800;9.05303100;2023-12-07T04:20:05;96380.25;;;-2.19;100.00
7824;BME280;3957;48.61947800;9.05303100;2023-12-07T04:21:07;96375.94;;;-2.20;100.00
7824;BME280;3957;48.61947800;9.05303100;2023-12-07T04:22:09;96383.09;;;-2.23;100.00
7824;BME280;3957;48.61947800;9.05303100;2023-12-07T04:23:10;96374.63;;;-2.26;100.00
7824;BME280;3957;48.61947800;9.05303100;2023-12-07T04:24:12;96383.69;;;-2.30;100.00
7824;BME280;3957;48.61947800;9.05303100;2023-12-07T04:25:13;96379.00;;;-2.38;100.00
7824;BME280;3957;48.61947800;9.05303100;2023-12-07T04:26:15;96378.31;;;-2.40;100.00
7824;BME280;3957;48.61947800;9.05303100;2023-12-07T04:27:17;96388.06;;;-2.42;100.00
7824;BME280;3957;48.61947800;9.05303100;2023-12-07T04:28:18;96377.69;;;-2.44;100.00
7824;BME280;3957;48.61947800;9.05303100;2023-12-07T04:29:20;96382.44;;;-2.49;100.00
7824;BME280;3957;48.61947800;9.05303100;2023-12-07T04:30:21;96383.50;;;-2.51;100.00
7824;BME280;3957;48.61947800;9.05303100;2023-12-07T04:31:23;96378.50;;;-2.54;100.00
7824;BME280;3957;48.61947800;9.05303100;2023-12-07T04:32:24;96384.91;;;-2.59;100.00
7824;BME280;3957;48.61947800;9.05303100;2023-12-07T04:33:27;96383.25;;;-2.60;100.00
7824;BME280;3957;48.61947800;9.05303100;2023-12-07T04:34:29;96379.28;;;-2.65;100.00
7824;BME280;3957;48.61947800;9.05303100;2023-12-07T04:35:31;96383.94;;;-2.69;100.00
7824;BME280;3957;48.61947800;9.05303100;2023-12-07T04:36:32;96383.56;;;-2.76;100.00
7824;BME280;3957;48.61947800;9.05303100;2023-12-07T04:37:34;96383.91;;;-2.80;100.00
7824;BME280;3957;48.61947800;9.05303100;2023-12-07T04:38:35;96385.28;;;-2.87;100.00
7824;BME280;3957;48.61947800;9.05303100;2023-12-07T04:39:37;96380.41;;;-2.92;100.00
7824;BME280;3957;48.61947800;9.05303100;2023-12-07T04:40:38;96385.13;;;-2.97;100.00
7824;BME280;3957;48.61947800;9.05303100;2023-12-07T04:41:40;96380.25;;;-3.02;100.00
7824;BME280;3957;48.61947800;9.05303100;2023-12-07T04:42:41;96385.84;;;-3.06;100.00
7824;BME280;3957;48.61947800;9.05303100;2023-12-07T04:43:43;96379.88;;;-3.09;100.00
7824;BME280;3957;48.61947800;9.05303100;2023-12-07T04:44:45;96381.97;;;-3.14;100.00
7824;BME280;3957;48.61947800;9.05303100;2023-12-07T04:45:46;96385.66;;;-3.16;100.00
7824;BME280;3957;48.61947800;9.05303100;2023-12-07T04:46:48;96379.69;;;-3.18;100.00
7824;BME280;3957;48.61947800;9.05303100;2023-12-07T04:47:49;96384.81;;;-3.17;100.00
7824;BME280;3957;48.61947800;9.05303100;2023-12-07T04:48:51;96391.09;;;-3.19;100.00
7824;BME280;3957;48.61947800;9.05303100;2023-12-07T04:49:52;96391.09;;;-3.19;100.00
7824;BME280;3957;48.61947800;9.05303100;2023-12-07T04:50:54;96378.38;;;-3.24;100.00
7824;BME280;3957;48.61947800;9.05303100;2023-12-07T04:51:55;96379.19;;;-3.23;100.00
7824;BME280;3957;48.61947800;9.05303100;2023-12-07T04:52:57;96377.50;;;-3.25;100.00
7824;BME280;3957;48.61947800;9.05303100;2023-12-07T04:53:59;96383.72;;;-3.26;100.00
7824;BME280;3957;48.61947800;9.05303100;2023-12-07T04:55:16;96382.97;;;-3.28;100.00